Overview Statistics Trail Chart Weather Telemetry Raw packets
 

This is the latest recevied weather packets stored in our database for station/object KY0TEQ-13. If no packets are shown the sender has not sent any weather packets the latest 10 day(s).

<< 88 89 90 91 92 93 94 >>
Time Temp. Humidity Pressure Rain* Wind** Luminosity Snow
1788039043 27.78° C 24% 1310 hPa 0 mm - 345 W/m² -
1788038738 27.78° C 25% 1310.1 hPa 0 mm - 474 W/m² -
1788038433 27.22° C 25% 1309.7 hPa 0 mm - 660 W/m² -
1788038127 26.11° C 28% 1310 hPa 0 mm - 720 W/m² -
1788037827 25.56° C 28% 1310.1 hPa 0 mm - 302 W/m² -
1788037521 25.56° C 28% 1309.9 hPa 0 mm - 263 W/m² -
1788037221 26.11° C 28% 1310.2 hPa 0 mm - 263 W/m² -
1788036916 25.56° C 29% 1310.6 hPa 0 mm - 307 W/m² -
1788036613 25° C 30% 1311 hPa 0 mm - 407 W/m² -
1788036308 25° C 30% 1311.1 hPa 0 mm - 288 W/m² -
1788036003 25° C 30% 1311.1 hPa 0 mm - 261 W/m² -
1788035703 25° C 30% 1311.2 hPa 0 mm - 298 W/m² -
1788035398 24.44° C 31% 1311.3 hPa 0 mm - 281 W/m² -
1788035093 24.44° C 30% 1311 hPa 0 mm - 415 W/m² -
1788034789 24.44° C 32% 1311.1 hPa 0 mm - 292 W/m² -
1788034485 24.44° C 33% 1311.2 hPa 0 mm - 212 W/m² -
1788034182 25° C 34% 1311.1 hPa 0 mm - 282 W/m² -
1788033880 25.56° C 32% 1311.4 hPa 0 mm - 418 W/m² -
1788033580 26.11° C 32% 1311.3 hPa 0 mm - 602 W/m² -
1788033274 25.56° C 32% 1311.4 hPa 0 mm - 695 W/m² -
1788032971 25.56° C 32% 1311.3 hPa 0 mm - 545 W/m² -
1788032670 25.56° C 33% 1311.4 hPa 0 mm - 461 W/m² -
1788032365 25.56° C 33% 1311.4 hPa 0 mm - 694 W/m² -
1788032060 24.44° C 35% 1311.7 hPa 0 mm - 554 W/m² -
1788031755 24.44° C 35% 1311.8 hPa 0 mm - 347 W/m² -

* Rain latest hour (hover to see other rain measurements)
** Current wind speed in m/s (hover to see current wind gust speed)